sensor_id;sensor_type;location;lat;lon;timestamp;pressure;altitude;pressure_sealevel;temperature;humidity
43436;BME280;36399;51.444;-2.018;2023-05-12T00:02:11;101455.25;;;7.94;100.00
43436;BME280;36399;51.444;-2.018;2023-05-12T00:04:37;101464.25;;;7.80;100.00
43436;BME280;36399;51.444;-2.018;2023-05-12T00:07:05;101458.53;;;7.68;100.00
43436;BME280;36399;51.444;-2.018;2023-05-12T00:09:33;101452.41;;;7.67;100.00
43436;BME280;36399;51.444;-2.018;2023-05-12T00:11:59;101445.09;;;7.58;100.00
43436;BME280;36399;51.444;-2.018;2023-05-12T00:14:26;101454.66;;;7.58;100.00
43436;BME280;36399;51.444;-2.018;2023-05-12T00:16:52;101454.50;;;7.53;100.00
43436;BME280;36399;51.444;-2.018;2023-05-12T00:19:18;101459.13;;;7.60;100.00
43436;BME280;36399;51.444;-2.018;2023-05-12T00:21:45;101455.69;;;7.62;100.00
43436;BME280;36399;51.444;-2.018;2023-05-12T00:24:11;101462.56;;;7.59;100.00
43436;BME280;36399;51.444;-2.018;2023-05-12T00:26:37;101463.16;;;7.52;100.00
43436;BME280;36399;51.444;-2.018;2023-05-12T00:29:03;101466.41;;;7.47;100.00
43436;BME280;36399;51.444;-2.018;2023-05-12T00:31:29;101467.69;;;7.36;100.00
43436;BME280;36399;51.444;-2.018;2023-05-12T00:33:55;101471.34;;;7.20;100.00
43436;BME280;36399;51.444;-2.018;2023-05-12T00:36:22;101470.34;;;7.16;100.00
43436;BME280;36399;51.444;-2.018;2023-05-12T00:38:48;101462.09;;;7.07;100.00
43436;BME280;36399;51.444;-2.018;2023-05-12T00:41:14;101463.69;;;7.04;100.00
43436;BME280;36399;51.444;-2.018;2023-05-12T00:43:40;101467.13;;;7.03;100.00
43436;BME280;36399;51.444;-2.018;2023-05-12T00:46:06;101472.50;;;7.06;100.00
43436;BME280;36399;51.444;-2.018;2023-05-12T00:48:32;101473.63;;;7.12;100.00
43436;BME280;36399;51.444;-2.018;2023-05-12T00:50:59;101477.06;;;7.11;100.00
43436;BME280;36399;51.444;-2.018;2023-05-12T00:53:25;101489.50;;;7.17;100.00
43436;BME280;36399;51.444;-2.018;2023-05-12T00:55:51;101491.28;;;7.18;100.00
43436;BME280;36399;51.444;-2.018;2023-05-12T00:58:18;101495.16;;;7.07;100.00
43436;BME280;36399;51.444;-2.018;2023-05-12T01:00:44;101494.06;;;7.02;100.00
43436;BME280;36399;51.444;-2.018;2023-05-12T01:03:10;101499.72;;;6.91;100.00
43436;BME280;36399;51.444;-2.018;2023-05-12T01:05:41;101504.53;;;6.82;100.00
43436;BME280;36399;51.444;-2.018;2023-05-12T01:08:11;101494.34;;;6.69;100.00
43436;BME280;36399;51.444;-2.018;2023-05-12T01:10:42;101497.56;;;6.63;100.00
43436;BME280;36399;51.444;-2.018;2023-05-12T01:13:09;101508.16;;;6.67;100.00
43436;BME280;36399;51.444;-2.018;2023-05-12T01:15:35;101508.97;;;6.65;100.00
43436;BME280;36399;51.444;-2.018;2023-05-12T01:18:03;101513.88;;;6.77;100.00
43436;BME280;36399;51.444;-2.018;2023-05-12T01:20:30;101514.84;;;6.79;100.00
43436;BME280;36399;51.444;-2.018;2023-05-12T01:22:57;101513.19;;;6.81;100.00
43436;BME280;36399;51.444;-2.018;2023-05-12T01:25:25;101513.19;;;6.81;100.00
43436;BME280;36399;51.444;-2.018;2023-05-12T01:27:53;101516.63;;;6.80;100.00
43436;BME280;36399;51.444;-2.018;2023-05-12T01:30:20;101523.75;;;6.84;100.00
43436;BME280;36399;51.444;-2.018;2023-05-12T01:32:46;101524.03;;;6.90;100.00
43436;BME280;36399;51.444;-2.018;2023-05-12T01:35:12;101521.00;;;7.01;100.00
43436;BME280;36399;51.444;-2.018;2023-05-12T01:37:38;101527.19;;;7.03;100.00
43436;BME280;36399;51.444;-2.018;2023-05-12T01:40:04;101529.72;;;7.01;100.00
43436;BME280;36399;51.444;-2.018;2023-05-12T01:42:30;101528.75;;;6.99;100.00
43436;BME280;36399;51.444;-2.018;2023-05-12T01:44:56;101528.69;;;6.97;100.00
43436;BME280;36399;51.444;-2.018;2023-05-12T01:47:22;101538.19;;;6.95;100.00
43436;BME280;36399;51.444;-2.018;2023-05-12T01:49:48;101533.44;;;6.87;100.00
43436;BME280;36399;51.444;-2.018;2023-05-12T01:52:14;101541.47;;;6.91;100.00
43436;BME280;36399;51.444;-2.018;2023-05-12T01:54:40;101540.72;;;6.94;100.00
43436;BME280;36399;51.444;-2.018;2023-05-12T01:57:06;101545.53;;;6.85;100.00
43436;BME280;36399;51.444;-2.018;2023-05-12T01:59:32;101542.72;;;6.80;100.00
43436;BME280;36399;51.444;-2.018;2023-05-12T02:01:58;101553.03;;;6.77;100.00
43436;BME280;36399;51.444;-2.018;2023-05-12T02:04:24;101554.59;;;6.93;100.00
43436;BME280;36399;51.444;-2.018;2023-05-12T02:06:50;101547.94;;;6.80;100.00
43436;BME280;36399;51.444;-2.018;2023-05-12T02:09:16;101559.06;;;6.95;100.00
43436;BME280;36399;51.444;-2.018;2023-05-12T02:11:42;101557.50;;;6.80;100.00
43436;BME280;36399;51.444;-2.018;2023-05-12T02:14:08;101565.47;;;6.83;100.00
43436;BME280;36399;51.444;-2.018;2023-05-12T02:16:34;101558.25;;;6.77;100.00
43436;BME280;36399;51.444;-2.018;2023-05-12T02:19:00;101557.09;;;6.72;100.00
43436;BME280;36399;51.444;-2.018;2023-05-12T02:21:26;101564.88;;;6.71;100.00
43436;BME280;36399;51.444;-2.018;2023-05-12T02:23:52;101563.00;;;6.68;100.00
43436;BME280;36399;51.444;-2.018;2023-05-12T02:26:18;101570.56;;;6.62;100.00
43436;BME280;36399;51.444;-2.018;2023-05-12T02:28:44;101565.81;;;6.53;100.00
43436;BME280;36399;51.444;-2.018;2023-05-12T02:31:10;101562.72;;;6.43;100.00
43436;BME280;36399;51.444;-2.018;2023-05-12T02:33:36;101569.56;;;6.41;100.00
43436;BME280;36399;51.444;-2.018;2023-05-12T02:36:02;101572.56;;;6.30;100.00
43436;BME280;36399;51.444;-2.018;2023-05-12T02:38:28;101569.13;;;6.31;100.00
43436;BME280;36399;51.444;-2.018;2023-05-12T02:40:54;101582.75;;;6.44;100.00
43436;BME280;36399;51.444;-2.018;2023-05-12T02:43:20;101582.06;;;6.48;100.00
43436;BME280;36399;51.444;-2.018;2023-05-12T02:45:46;101581.53;;;6.55;100.00
43436;BME280;36399;51.444;-2.018;2023-05-12T02:48:12;101585.44;;;6.45;100.00
43436;BME280;36399;51.444;-2.018;2023-05-12T02:50:38;101594.22;;;6.47;100.00
43436;BME280;36399;51.444;-2.018;2023-05-12T02:53:04;101595.41;;;6.54;100.00
43436;BME280;36399;51.444;-2.018;2023-05-12T02:55:30;101600.91;;;6.60;100.00
43436;BME280;36399;51.444;-2.018;2023-05-12T02:57:56;101607.16;;;6.63;100.00
43436;BME280;36399;51.444;-2.018;2023-05-12T03:00:22;101613.06;;;6.59;100.00
43436;BME280;36399;51.444;-2.018;2023-05-12T03:02:48;101615.94;;;6.65;100.00
43436;BME280;36399;51.444;-2.018;2023-05-12T03:05:13;101610.44;;;6.77;100.00
43436;BME280;36399;51.444;-2.018;2023-05-12T03:07:39;101619.38;;;6.82;100.00
43436;BME280;36399;51.444;-2.018;2023-05-12T03:10:06;101624.19;;;6.92;100.00
43436;BME280;36399;51.444;-2.018;2023-05-12T03:12:33;101630.22;;;6.91;100.00
43436;BME280;36399;51.444;-2.018;2023-05-12T03:14:59;101635.31;;;6.88;100.00
43436;BME280;36399;51.444;-2.018;2023-05-12T03:17:25;101625.50;;;6.83;100.00
43436;BME280;36399;51.444;-2.018;2023-05-12T03:19:51;101625.00;;;6.91;100.00
43436;BME280;36399;51.444;-2.018;2023-05-12T03:22:17;101634.72;;;7.13;100.00
43436;BME280;36399;51.444;-2.018;2023-05-12T03:24:43;101648.88;;;7.38;100.00
43436;BME280;36399;51.444;-2.018;2023-05-12T03:27:09;101653.34;;;7.40;100.00
43436;BME280;36399;51.444;-2.018;2023-05-12T03:29:35;101644.13;;;7.48;100.00
43436;BME280;36399;51.444;-2.018;2023-05-12T03:32:01;101643.72;;;7.58;100.00
43436;BME280;36399;51.444;-2.018;2023-05-12T03:34:27;101649.53;;;7.72;100.00
43436;BME280;36399;51.444;-2.018;2023-05-12T03:36:53;101661.22;;;7.80;100.00
43436;BME280;36399;51.444;-2.018;2023-05-12T03:39:18;101657.28;;;7.90;100.00
43436;BME280;36399;51.444;-2.018;2023-05-12T03:41:44;101661.94;;;7.97;100.00
43436;BME280;36399;51.444;-2.018;2023-05-12T03:44:10;101666.72;;;8.07;100.00
43436;BME280;36399;51.444;-2.018;2023-05-12T03:46:36;101671.19;;;8.31;100.00
43436;BME280;36399;51.444;-2.018;2023-05-12T03:49:02;101666.78;;;8.30;100.00
43436;BME280;36399;51.444;-2.018;2023-05-12T03:51:28;101671.38;;;8.34;100.00
43436;BME280;36399;51.444;-2.018;2023-05-12T03:53:55;101677.75;;;8.40;100.00
43436;BME280;36399;51.444;-2.018;2023-05-12T03:56:21;101673.28;;;8.38;100.00
43436;BME280;36399;51.444;-2.018;2023-05-12T03:58:47;101680.69;;;8.48;100.00
43436;BME280;36399;51.444;-2.018;2023-05-12T04:01:13;101677.47;;;8.55;100.00
43436;BME280;36399;51.444;-2.018;2023-05-12T04:03:39;101677.47;;;8.55;100.00
43436;BME280;36399;51.444;-2.018;2023-05-12T04:06:06;101685.22;;;8.52;100.00
43436;BME280;36399;51.444;-2.018;2023-05-12T04:08:32;101681.94;;;8.58;100.00
43436;BME280;36399;51.444;-2.018;2023-05-12T04:10:59;101679.38;;;8.59;100.00
43436;BME280;36399;51.444;-2.018;2023-05-12T04:13:27;101680.47;;;8.64;100.00
43436;BME280;36399;51.444;-2.018;2023-05-12T04:15:54;101683.06;;;8.64;100.00
43436;BME280;36399;51.444;-2.018;2023-05-12T04:18:20;101689.56;;;8.74;100.00
43436;BME280;36399;51.444;-2.018;2023-05-12T04:20:46;101687.84;;;8.74;100.00
43436;BME280;36399;51.444;-2.018;2023-05-12T04:23:12;101691.53;;;8.79;100.00
43436;BME280;36399;51.444;-2.018;2023-05-12T04:25:40;101698.50;;;8.79;100.00
43436;BME280;36399;51.444;-2.018;2023-05-12T04:28:07;101693.31;;;8.80;100.00
43436;BME280;36399;51.444;-2.018;2023-05-12T04:30:34;101685.84;;;8.90;100.00
43436;BME280;36399;51.444;-2.018;2023-05-12T04:33:00;101689.25;;;8.87;100.00
43436;BME280;36399;51.444;-2.018;2023-05-12T04:35:27;101690.19;;;8.89;100.00
43436;BME280;36399;51.444;-2.018;2023-05-12T04:37:53;101698.09;;;8.91;100.00
43436;BME280;36399;51.444;-2.018;2023-05-12T04:40:19;101688.47;;;8.90;100.00
43436;BME280;36399;51.444;-2.018;2023-05-12T04:42:45;101692.03;;;8.92;100.00
43436;BME280;36399;51.444;-2.018;2023-05-12T04:45:12;101695.56;;;8.92;100.00
43436;BME280;36399;51.444;-2.018;2023-05-12T04:47:38;101701.81;;;8.96;100.00
43436;BME280;36399;51.444;-2.018;2023-05-12T04:50:04;101695.72;;;8.97;100.00
43436;BME280;36399;51.444;-2.018;2023-05-12T04:52:30;101705.25;;;8.95;100.00
43436;BME280;36399;51.444;-2.018;2023-05-12T04:54:56;101711.03;;;9.08;100.00
43436;BME280;36399;51.444;-2.018;2023-05-12T04:57:22;101710.84;;;9.04;100.00
43436;BME280;36399;51.444;-2.018;2023-05-12T04:59:48;101716.19;;;9.07;100.00
43436;BME280;36399;51.444;-2.018;2023-05-12T05:02:14;101719.88;;;9.12;100.00
43436;BME280;36399;51.444;-2.018;2023-05-12T05:04:40;101715.59;;;9.14;100.00
43436;BME280;36399;51.444;-2.018;2023-05-12T05:07:06;101720.72;;;9.11;100.00
43436;BME280;36399;51.444;-2.018;2023-05-12T05:09:32;101716.44;;;9.13;100.00
43436;BME280;36399;51.444;-2.018;2023-05-12T05:11:58;101715.47;;;9.11;100.00
43436;BME280;36399;51.444;-2.018;2023-05-12T05:14:24;101718.34;;;9.17;100.00
43436;BME280;36399;51.444;-2.018;2023-05-12T05:16:50;101721.78;;;9.16;100.00
43436;BME280;36399;51.444;-2.018;2023-05-12T05:19:16;101723.81;;;9.23;100.00
43436;BME280;36399;51.444;-2.018;2023-05-12T05:21:42;101734.22;;;9.22;100.00
43436;BME280;36399;51.444;-2.018;2023-05-12T05:24:08;101730.66;;;9.20;100.00
43436;BME280;36399;51.444;-2.018;2023-05-12T05:26:34;101736.72;;;9.18;100.00
43436;BME280;36399;51.444;-2.018;2023-05-12T05:29:00;101739.53;;;9.23;100.00
43436;BME280;36399;51.444;-2.018;2023-05-12T05:31:27;101738.63;;;9.23;100.00
43436;BME280;36399;51.444;-2.018;2023-05-12T05:33:54;101740.72;;;9.31;100.00
43436;BME280;36399;51.444;-2.018;2023-05-12T05:36:21;101744.28;;;9.33;100.00
43436;BME280;36399;51.444;-2.018;2023-05-12T05:38:47;101745.50;;;9.41;100.00
43436;BME280;36399;51.444;-2.018;2023-05-12T05:41:13;101741.78;;;9.36;100.00
43436;BME280;36399;51.444;-2.018;2023-05-12T05:43:39;101744.41;;;9.36;100.00
43436;BME280;36399;51.444;-2.018;2023-05-12T05:46:06;101750.75;;;9.41;100.00
43436;BME280;36399;51.444;-2.018;2023-05-12T05:48:32;101758.78;;;9.46;100.00
43436;BME280;36399;51.444;-2.018;2023-05-12T05:50:58;101759.13;;;9.55;100.00
43436;BME280;36399;51.444;-2.018;2023-05-12T05:53:26;101755.56;;;9.53;100.00
43436;BME280;36399;51.444;-2.018;2023-05-12T05:55:56;101755.59;;;9.55;100.00
43436;BME280;36399;51.444;-2.018;2023-05-12T05:58:25;101757.50;;;9.59;100.00
43436;BME280;36399;51.444;-2.018;2023-05-12T06:00:52;101761.31;;;9.67;100.00
43436;BME280;36399;51.444;-2.018;2023-05-12T06:03:24;101758.44;;;9.61;100.00
43436;BME280;36399;51.444;-2.018;2023-05-12T06:05:50;101753.31;;;9.64;100.00
43436;BME280;36399;51.444;-2.018;2023-05-12T06:10:50;101745.91;;;9.76;100.00
43436;BME280;36399;51.444;-2.018;2023-05-12T06:13:16;101751.41;;;9.84;100.00
43436;BME280;36399;51.444;-2.018;2023-05-12T06:15:43;101742.19;;;9.93;100.00
43436;BME280;36399;51.444;-2.018;2023-05-12T06:18:09;101743.97;;;9.94;100.00
43436;BME280;36399;51.444;-2.018;2023-05-12T06:20:35;101736.03;;;9.93;100.00
43436;BME280;36399;51.444;-2.018;2023-05-12T06:23:01;101733.38;;;9.91;100.00
43436;BME280;36399;51.444;-2.018;2023-05-12T06:25:27;101737.16;;;9.99;100.00
43436;BME280;36399;51.444;-2.018;2023-05-12T06:27:53;101733.78;;;10.03;100.00
43436;BME280;36399;51.444;-2.018;2023-05-12T06:30:19;101738.38;;;10.09;100.00
43436;BME280;36399;51.444;-2.018;2023-05-12T06:32:45;101739.81;;;10.25;100.00
43436;BME280;36399;51.444;-2.018;2023-05-12T06:35:11;101740.34;;;10.16;100.00
43436;BME280;36399;51.444;-2.018;2023-05-12T06:37:37;101739.84;;;10.01;100.00
43436;BME280;36399;51.444;-2.018;2023-05-12T06:40:03;101736.69;;;10.11;100.00
43436;BME280;36399;51.444;-2.018;2023-05-12T06:42:29;101730.75;;;10.17;100.00
43436;BME280;36399;51.444;-2.018;2023-05-12T06:44:55;101731.94;;;10.25;100.00
43436;BME280;36399;51.444;-2.018;2023-05-12T06:47:21;101731.22;;;10.29;100.00
43436;BME280;36399;51.444;-2.018;2023-05-12T06:49:47;101733.75;;;10.51;100.00
43436;BME280;36399;51.444;-2.018;2023-05-12T06:52:14;101741.19;;;10.64;100.00
43436;BME280;36399;51.444;-2.018;2023-05-12T06:54:41;101735.72;;;10.58;100.00
43436;BME280;36399;51.444;-2.018;2023-05-12T06:57:06;101735.81;;;10.61;100.00
43436;BME280;36399;51.444;-2.018;2023-05-12T06:59:32;101734.13;;;10.63;100.00
43436;BME280;36399;51.444;-2.018;2023-05-12T07:01:59;101741.25;;;10.93;100.00
43436;BME280;36399;51.444;-2.018;2023-05-12T07:04:24;101742.06;;;10.92;100.00
43436;BME280;36399;51.444;-2.018;2023-05-12T07:06:51;101734.81;;;10.85;100.00
43436;BME280;36399;51.444;-2.018;2023-05-12T07:09:17;101734.44;;;10.99;100.00
43436;BME280;36399;51.444;-2.018;2023-05-12T07:11:43;101725.84;;;11.05;100.00
43436;BME280;36399;51.444;-2.018;2023-05-12T07:14:09;101729.78;;;11.19;100.00
43436;BME280;36399;51.444;-2.018;2023-05-12T07:16:35;101722.38;;;11.06;100.00
43436;BME280;36399;51.444;-2.018;2023-05-12T07:19:01;101723.75;;;10.93;100.00
43436;BME280;36399;51.444;-2.018;2023-05-12T07:21:27;101720.75;;;10.83;100.00
43436;BME280;36399;51.444;-2.018;2023-05-12T07:23:54;101727.41;;;10.98;100.00
43436;BME280;36399;51.444;-2.018;2023-05-12T07:26:20;101728.47;;;11.05;100.00
43436;BME280;36399;51.444;-2.018;2023-05-12T07:28:46;101730.25;;;11.06;100.00
43436;BME280;36399;51.444;-2.018;2023-05-12T07:31:12;101730.41;;;11.11;100.00
43436;BME280;36399;51.444;-2.018;2023-05-12T07:33:38;101721.44;;;11.04;100.00
43436;BME280;36399;51.444;-2.018;2023-05-12T07:36:04;101722.25;;;10.74;100.00
43436;BME280;36399;51.444;-2.018;2023-05-12T07:38:34;101730.97;;;10.73;100.00
43436;BME280;36399;51.444;-2.018;2023-05-12T07:41:00;101728.97;;;10.66;100.00
43436;BME280;36399;51.444;-2.018;2023-05-12T07:43:27;101735.56;;;10.81;100.00
43436;BME280;36399;51.444;-2.018;2023-05-12T07:45:53;101731.53;;;10.92;100.00
43436;BME280;36399;51.444;-2.018;2023-05-12T07:48:20;101731.88;;;11.01;100.00
43436;BME280;36399;51.444;-2.018;2023-05-12T07:50:47;101724.06;;;11.32;100.00
43436;BME280;36399;51.444;-2.018;2023-05-12T07:53:13;101719.53;;;11.87;100.00
43436;BME280;36399;51.444;-2.018;2023-05-12T07:55:39;101703.66;;;12.15;100.00
43436;BME280;36399;51.444;-2.018;2023-05-12T07:58:05;101679.25;;;12.57;100.00
43436;BME280;36399;51.444;-2.018;2023-05-12T08:00:31;101667.50;;;12.44;100.00
43436;BME280;36399;51.444;-2.018;2023-05-12T08:02:57;101666.47;;;12.74;100.00
43436;BME280;36399;51.444;-2.018;2023-05-12T08:05:26;101663.72;;;13.07;100.00
43436;BME280;36399;51.444;-2.018;2023-05-12T08:07:52;101642.44;;;12.99;100.00
43436;BME280;36399;51.444;-2.018;2023-05-12T08:10:18;101635.75;;;13.13;100.00
43436;BME280;36399;51.444;-2.018;2023-05-12T08:12:44;101632.59;;;13.30;100.00
43436;BME280;36399;51.444;-2.018;2023-05-12T08:15:10;101625.19;;;13.13;100.00
43436;BME280;36399;51.444;-2.018;2023-05-12T08:17:37;101614.84;;;12.82;100.00
43436;BME280;36399;51.444;-2.018;2023-05-12T08:20:03;101619.69;;;13.03;100.00
43436;BME280;36399;51.444;-2.018;2023-05-12T08:22:30;101618.00;;;13.06;100.00
43436;BME280;36399;51.444;-2.018;2023-05-12T08:24:56;101632.25;;;13.14;100.00
43436;BME280;36399;51.444;-2.018;2023-05-12T08:27:22;101627.66;;;12.67;100.00
43436;BME280;36399;51.444;-2.018;2023-05-12T08:29:48;101636.78;;;12.45;100.00
43436;BME280;36399;51.444;-2.018;2023-05-12T08:32:13;101643.59;;;12.00;100.00
43436;BME280;36399;51.444;-2.018;2023-05-12T08:34:39;101662.75;;;11.96;100.00
43436;BME280;36399;51.444;-2.018;2023-05-12T08:37:05;101668.09;;;11.98;100.00
43436;BME280;36399;51.444;-2.018;2023-05-12T08:39:32;101669.38;;;12.14;100.00
43436;BME280;36399;51.444;-2.018;2023-05-12T08:44:35;101651.13;;;12.56;100.00
43436;BME280;36399;51.444;-2.018;2023-05-12T08:47:03;101643.13;;;12.90;100.00
43436;BME280;36399;51.444;-2.018;2023-05-12T08:49:34;101623.03;;;13.35;100.00
43436;BME280;36399;51.444;-2.018;2023-05-12T08:52:01;101608.94;;;13.34;100.00
43436;BME280;36399;51.444;-2.018;2023-05-12T08:54:28;101604.41;;;13.27;100.00
43436;BME280;36399;51.444;-2.018;2023-05-12T08:56:55;101614.66;;;13.13;100.00
43436;BME280;36399;51.444;-2.018;2023-05-12T08:59:22;101612.41;;;12.91;100.00
43436;BME280;36399;51.444;-2.018;2023-05-12T09:01:49;101611.84;;;13.06;100.00
43436;BME280;36399;51.444;-2.018;2023-05-12T09:04:16;101600.28;;;13.41;100.00
43436;BME280;36399;51.444;-2.018;2023-05-12T09:06:43;101603.38;;;13.64;100.00
43436;BME280;36399;51.444;-2.018;2023-05-12T09:09:10;101598.72;;;13.51;100.00
43436;BME280;36399;51.444;-2.018;2023-05-12T09:11:37;101600.94;;;13.30;100.00
43436;BME280;36399;51.444;-2.018;2023-05-12T09:14:07;101605.97;;;13.17;100.00
43436;BME280;36399;51.444;-2.018;2023-05-12T09:16:42;101600.53;;;13.11;100.00
43436;BME280;36399;51.444;-2.018;2023-05-12T09:19:10;101612.09;;;13.60;100.00
43436;BME280;36399;51.444;-2.018;2023-05-12T09:21:36;101596.41;;;14.17;100.00
43436;BME280;36399;51.444;-2.018;2023-05-12T09:24:04;101580.25;;;14.53;100.00
43436;BME280;36399;51.444;-2.018;2023-05-12T09:26:50;101574.69;;;14.99;100.00
43436;BME280;36399;51.444;-2.018;2023-05-12T09:29:18;101572.69;;;14.78;100.00
43436;BME280;36399;51.444;-2.018;2023-05-12T09:31:54;101566.78;;;14.38;100.00
43436;BME280;36399;51.444;-2.018;2023-05-12T09:34:31;101572.63;;;14.16;100.00
43436;BME280;36399;51.444;-2.018;2023-05-12T09:36:59;101571.66;;;14.11;100.00
43436;BME280;36399;51.444;-2.018;2023-05-12T09:39:26;101569.38;;;14.35;100.00
43436;BME280;36399;51.444;-2.018;2023-05-12T09:41:52;101564.81;;;14.84;100.00
43436;BME280;36399;51.444;-2.018;2023-05-12T09:44:19;101545.03;;;14.55;100.00
43436;BME280;36399;51.444;-2.018;2023-05-12T09:46:45;101559.41;;;14.75;100.00
43436;BME280;36399;51.444;-2.018;2023-05-12T09:49:21;101574.28;;;14.11;100.00
43436;BME280;36399;51.444;-2.018;2023-05-12T09:51:56;101583.97;;;14.65;100.00
43436;BME280;36399;51.444;-2.018;2023-05-12T09:54:30;101559.69;;;15.72;100.00
43436;BME280;36399;51.444;-2.018;2023-05-12T09:56:58;101524.09;;;16.55;100.00
43436;BME280;36399;51.444;-2.018;2023-05-12T09:59:35;101519.16;;;17.39;100.00
43436;BME280;36399;51.444;-2.018;2023-05-12T10:02:05;101513.75;;;17.16;100.00
43436;BME280;36399;51.444;-2.018;2023-05-12T10:04:36;101507.28;;;16.51;100.00
43436;BME280;36399;51.444;-2.018;2023-05-12T10:07:10;101506.03;;;15.93;100.00
43436;BME280;36399;51.444;-2.018;2023-05-12T10:09:41;101539.69;;;15.18;100.00
43436;BME280;36399;51.444;-2.018;2023-05-12T10:12:07;101534.97;;;14.94;100.00
43436;BME280;36399;51.444;-2.018;2023-05-12T10:14:34;101551.97;;;15.11;100.00
43436;BME280;36399;51.444;-2.018;2023-05-12T10:17:02;101552.41;;;15.54;100.00
43436;BME280;36399;51.444;-2.018;2023-05-12T10:19:29;101548.22;;;15.71;100.00
43436;BME280;36399;51.444;-2.018;2023-05-12T10:21:56;101531.88;;;16.27;100.00
43436;BME280;36399;51.444;-2.018;2023-05-12T10:24:26;101507.63;;;17.38;100.00
43436;BME280;36399;51.444;-2.018;2023-05-12T10:26:53;101498.69;;;16.96;100.00
43436;BME280;36399;51.444;-2.018;2023-05-12T10:29:22;101492.44;;;16.76;100.00
43436;BME280;36399;51.444;-2.018;2023-05-12T10:31:58;101514.84;;;15.92;100.00
43436;BME280;36399;51.444;-2.018;2023-05-12T10:34:33;101519.91;;;15.64;100.00
43436;BME280;36399;51.444;-2.018;2023-05-12T10:36:59;101525.03;;;15.52;100.00
43436;BME280;36399;51.444;-2.018;2023-05-12T10:39:29;101545.59;;;15.74;100.00
43436;BME280;36399;51.444;-2.018;2023-05-12T10:42:06;101541.44;;;16.07;100.00
43436;BME280;36399;51.444;-2.018;2023-05-12T10:44:33;101534.34;;;16.01;100.00
43436;BME280;36399;51.444;-2.018;2023-05-12T10:47:01;101525.66;;;16.19;100.00
43436;BME280;36399;51.444;-2.018;2023-05-12T10:49:39;101517.91;;;16.54;100.00
43436;BME280;36399;51.444;-2.018;2023-05-12T10:52:06;101521.16;;;16.09;100.00
43436;BME280;36399;51.444;-2.018;2023-05-12T10:54:40;101516.78;;;16.14;100.00
43436;BME280;36399;51.444;-2.018;2023-05-12T10:57:18;101529.09;;;16.09;100.00
43436;BME280;36399;51.444;-2.018;2023-05-12T10:59:55;101521.13;;;16.04;100.00
43436;BME280;36399;51.444;-2.018;2023-05-12T11:02:23;101527.47;;;16.26;100.00
43436;BME280;36399;51.444;-2.018;2023-05-12T11:04:56;101527.16;;;15.87;100.00
43436;BME280;36399;51.444;-2.018;2023-05-12T11:07:28;101521.44;;;16.56;100.00
43436;BME280;36399;51.444;-2.018;2023-05-12T11:09:56;101512.03;;;17.24;100.00
43436;BME280;36399;51.444;-2.018;2023-05-12T11:12:23;101509.22;;;16.77;100.00
43436;BME280;36399;51.444;-2.018;2023-05-12T11:14:51;101510.31;;;17.44;100.00
43436;BME280;36399;51.444;-2.018;2023-05-12T11:17:17;101515.22;;;16.50;100.00
43436;BME280;36399;51.444;-2.018;2023-05-12T11:19:47;101517.25;;;16.93;100.00
43436;BME280;36399;51.444;-2.018;2023-05-12T11:22:18;101516.16;;;16.56;100.00
43436;BME280;36399;51.444;-2.018;2023-05-12T11:24:45;101521.59;;;16.76;100.00
43436;BME280;36399;51.444;-2.018;2023-05-12T11:27:13;101523.44;;;16.92;100.00
43436;BME280;36399;51.444;-2.018;2023-05-12T11:29:40;101501.06;;;16.41;100.00
43436;BME280;36399;51.444;-2.018;2023-05-12T11:32:08;101529.88;;;15.97;100.00
43436;BME280;36399;51.444;-2.018;2023-05-12T11:34:35;101541.78;;;15.50;100.00
43436;BME280;36399;51.444;-2.018;2023-05-12T11:37:03;101544.75;;;15.80;100.00
43436;BME280;36399;51.444;-2.018;2023-05-12T11:39:30;101540.22;;;16.91;100.00
43436;BME280;36399;51.444;-2.018;2023-05-12T11:42:02;101500.63;;;17.98;100.00
43436;BME280;36399;51.444;-2.018;2023-05-12T11:44:29;101524.47;;;17.49;100.00
43436;BME280;36399;51.444;-2.018;2023-05-12T11:47:10;101515.28;;;16.63;100.00
43436;BME280;36399;51.444;-2.018;2023-05-12T11:49:52;101522.72;;;15.83;100.00
43436;BME280;36399;51.444;-2.018;2023-05-12T11:52:23;101548.25;;;15.74;100.00
43436;BME280;36399;51.444;-2.018;2023-05-12T11:54:59;101527.78;;;16.72;100.00
43436;BME280;36399;51.444;-2.018;2023-05-12T11:57:33;101525.72;;;16.31;100.00
43436;BME280;36399;51.444;-2.018;2023-05-12T12:00:01;101544.28;;;16.30;100.00
43436;BME280;36399;51.444;-2.018;2023-05-12T12:02:28;101533.09;;;16.75;100.00
43436;BME280;36399;51.444;-2.018;2023-05-12T12:04:54;101517.22;;;16.87;100.00
43436;BME280;36399;51.444;-2.018;2023-05-12T12:07:28;101507.63;;;17.29;100.00
43436;BME280;36399;51.444;-2.018;2023-05-12T12:09:54;101504.09;;;17.44;100.00
43436;BME280;36399;51.444;-2.018;2023-05-12T12:12:20;101519.16;;;17.52;100.00
43436;BME280;36399;51.444;-2.018;2023-05-12T12:14:46;101518.00;;;16.65;100.00
43436;BME280;36399;51.444;-2.018;2023-05-12T12:17:12;101538.69;;;15.92;100.00
43436;BME280;36399;51.444;-2.018;2023-05-12T12:19:38;101551.28;;;16.23;100.00
43436;BME280;36399;51.444;-2.018;2023-05-12T12:22:04;101538.06;;;16.23;100.00
43436;BME280;36399;51.444;-2.018;2023-05-12T12:24:30;101535.56;;;16.54;100.00
43436;BME280;36399;51.444;-2.018;2023-05-12T12:26:56;101533.13;;;16.87;100.00
43436;BME280;36399;51.444;-2.018;2023-05-12T12:29:22;101525.88;;;16.56;100.00
43436;BME280;36399;51.444;-2.018;2023-05-12T12:31:50;101541.81;;;16.63;100.00
43436;BME280;36399;51.444;-2.018;2023-05-12T12:34:16;101536.38;;;16.37;100.00
43436;BME280;36399;51.444;-2.018;2023-05-12T12:36:42;101538.00;;;16.14;100.00
43436;BME280;36399;51.444;-2.018;2023-05-12T12:39:08;101541.41;;;16.01;100.00
43436;BME280;36399;51.444;-2.018;2023-05-12T12:41:35;101536.34;;;16.31;100.00